createdAt,value
2022-08-27T00:02:16.636Z,5.72
2022-08-27T00:04:44.495Z,4.43
2022-08-27T00:07:12.547Z,4.88
2022-08-27T00:09:40.326Z,4.60
2022-08-27T00:12:08.550Z,5.75
2022-08-27T00:14:38.729Z,5.82
2022-08-27T00:17:06.949Z,3.53
2022-08-27T00:19:35.921Z,8.70
2022-08-27T00:22:03.683Z,4.03
2022-08-27T00:24:30.434Z,5.40
2022-08-27T00:26:57.371Z,7.00
2022-08-27T00:29:24.127Z,4.53
2022-08-27T00:31:53.428Z,2.80
2022-08-27T00:34:22.349Z,3.53
2022-08-27T00:36:49.767Z,3.90
2022-08-27T00:39:16.484Z,4.60
2022-08-27T00:41:43.513Z,3.47
2022-08-27T00:44:12.214Z,3.55
2022-08-27T00:46:44.472Z,6.00
2022-08-27T00:49:19.189Z,1.70
2022-08-27T00:51:54.534Z,3.38
2022-08-27T00:54:22.150Z,5.32
2022-08-27T00:56:51.393Z,5.00
2022-08-27T00:59:21.663Z,4.65
2022-08-27T01:02:07.016Z,6.68
2022-08-27T01:04:36.088Z,5.68
2022-08-27T01:07:03.381Z,4.65
2022-08-27T01:09:30.591Z,4.18
2022-08-27T01:11:59.169Z,4.97
2022-08-27T01:14:27.332Z,6.18
2022-08-27T01:16:57.312Z,4.20
2022-08-27T01:19:34.514Z,4.80
2022-08-27T01:22:23.320Z,5.53
2022-08-27T01:24:54.097Z,5.55
2022-08-27T01:27:24.880Z,4.80
2022-08-27T01:29:51.714Z,6.38
2022-08-27T01:32:23.902Z,3.67
2022-08-27T01:34:51.576Z,6.30
2022-08-27T01:37:23.735Z,4.30
2022-08-27T01:39:52.014Z,3.85
2022-08-27T01:42:34.347Z,3.78
2022-08-27T01:45:06.184Z,4.97
2022-08-27T01:47:34.493Z,5.78
2022-08-27T01:50:04.107Z,4.68
2022-08-27T01:52:31.533Z,4.40
2022-08-27T01:54:59.295Z,6.80
2022-08-27T01:57:26.524Z,6.55
2022-08-27T01:59:54.697Z,6.28
2022-08-27T02:02:22.801Z,4.75
2022-08-27T02:04:51.041Z,5.75
2022-08-27T02:07:18.511Z,5.68
2022-08-27T02:09:45.462Z,7.15
2022-08-27T02:12:12.159Z,6.75
2022-08-27T02:14:38.901Z,6.00
2022-08-27T02:17:05.675Z,8.05
2022-08-27T02:19:32.458Z,8.50
2022-08-27T02:22:00.566Z,4.22
2022-08-27T02:24:28.598Z,7.28
2022-08-27T02:26:55.592Z,6.20
2022-08-27T02:29:23.206Z,6.45
2022-08-27T02:31:50.831Z,6.47
2022-08-27T02:34:18.721Z,7.28
2022-08-27T02:36:45.958Z,6.40
2022-08-27T02:39:12.868Z,6.53
2022-08-27T02:41:39.552Z,5.03
2022-08-27T02:44:10.155Z,6.20
2022-08-27T02:46:38.906Z,9.18
2022-08-27T02:49:06.546Z,7.68
2022-08-27T02:51:33.466Z,8.77
2022-08-27T02:54:02.375Z,7.93
2022-08-27T02:56:30.082Z,6.85
2022-08-27T02:58:56.793Z,4.97
2022-08-27T03:01:23.527Z,6.93
2022-08-27T03:03:50.363Z,9.43
2022-08-27T03:06:17.101Z,7.03
2022-08-27T03:08:52.560Z,8.40
2022-08-27T03:11:23.183Z,7.45
2022-08-27T03:13:50.157Z,6.20
2022-08-27T03:16:17.092Z,7.40
2022-08-27T03:18:43.867Z,7.95
2022-08-27T03:21:20.287Z,6.35
2022-08-27T03:23:47.592Z,6.20
2022-08-27T03:26:14.735Z,5.63
2022-08-27T03:28:41.563Z,5.20
2022-08-27T03:31:13.734Z,6.97
2022-08-27T03:33:41.220Z,6.57
2022-08-27T03:36:08.861Z,9.38
2022-08-27T03:38:36.137Z,6.82
2022-08-27T03:41:04.246Z,8.27
2022-08-27T03:43:31.348Z,8.38
2022-08-27T03:46:01.314Z,7.65
2022-08-27T03:48:30.691Z,3.83
2022-08-27T03:50:57.893Z,5.88
2022-08-27T03:53:24.927Z,5.05
2022-08-27T03:55:51.613Z,8.55
2022-08-27T03:58:18.392Z,5.25
2022-08-27T04:00:45.415Z,7.18
2022-08-27T04:03:14.231Z,6.72
2022-08-27T04:05:42.183Z,6.00
2022-08-27T04:08:12.925Z,4.00
2022-08-27T04:10:41.189Z,5.03
2022-08-27T04:13:08.000Z,7.00
2022-08-27T04:15:34.707Z,6.50
2022-08-27T04:18:05.084Z,5.15
2022-08-27T04:20:35.590Z,4.78
2022-08-27T04:23:03.139Z,6.07
2022-08-27T04:25:29.889Z,7.95
2022-08-27T04:27:56.624Z,5.13
2022-08-27T04:30:23.516Z,5.68
2022-08-27T04:32:50.782Z,4.45
2022-08-27T04:35:17.846Z,6.35
2022-08-27T04:37:44.706Z,4.55
2022-08-27T04:40:12.698Z,4.47
2022-08-27T04:42:39.562Z,7.03
2022-08-27T04:45:06.723Z,8.43
2022-08-27T04:47:33.449Z,10.25
2022-08-27T04:50:00.214Z,11.23
2022-08-27T04:52:28.438Z,11.95
2022-08-27T04:54:55.551Z,10.05
2022-08-27T04:57:22.264Z,10.80
2022-08-27T04:59:50.860Z,10.38
2022-08-27T05:02:17.678Z,14.35
2022-08-27T05:04:44.455Z,12.98
2022-08-27T05:07:11.319Z,14.00
2022-08-27T05:09:38.919Z,11.85
2022-08-27T05:12:05.922Z,12.70
2022-08-27T05:14:32.853Z,10.50
2022-08-27T05:17:00.191Z,11.13
2022-08-27T05:19:27.405Z,15.13
2022-08-27T05:21:54.292Z,10.82
2022-08-27T05:24:22.124Z,11.48
2022-08-27T05:26:49.287Z,16.23
2022-08-27T05:29:16.706Z,13.18
2022-08-27T05:31:44.258Z,11.13
2022-08-27T05:34:18.659Z,9.52
2022-08-27T05:36:53.424Z,11.43
2022-08-27T05:39:20.282Z,10.00
2022-08-27T05:41:47.042Z,11.45
2022-08-27T05:47:02.901Z,11.63
2022-08-27T05:49:29.580Z,10.18
2022-08-27T05:51:56.308Z,11.80
2022-08-27T05:54:23.767Z,10.45
2022-08-27T05:56:50.631Z,11.23
2022-08-27T05:59:36.819Z,15.38
2022-08-27T06:02:06.322Z,12.00
2022-08-27T06:04:33.891Z,11.13
2022-08-27T06:07:00.937Z,10.40
2022-08-27T06:09:31.713Z,9.48
2022-08-27T06:12:02.190Z,13.82
2022-08-27T06:14:30.026Z,11.15
2022-08-27T06:16:58.731Z,13.15
2022-08-27T06:19:25.596Z,13.32
2022-08-27T06:22:00.237Z,14.02
2022-08-27T06:24:28.971Z,14.32
2022-08-27T06:26:56.400Z,10.50
2022-08-27T06:29:24.759Z,12.73
2022-08-27T06:31:53.100Z,12.38
2022-08-27T06:34:22.987Z,12.23
2022-08-27T06:36:49.871Z,12.20
2022-08-27T06:39:26.043Z,12.13
2022-08-27T06:41:53.165Z,11.27
2022-08-27T06:44:21.110Z,13.27
2022-08-27T06:46:47.915Z,12.00
2022-08-27T06:49:14.663Z,11.52
2022-08-27T06:51:45.820Z,12.73
2022-08-27T06:54:14.194Z,11.55
2022-08-27T06:56:42.506Z,10.75
2022-08-27T06:59:12.365Z,11.80
2022-08-27T07:01:43.444Z,15.57
2022-08-27T07:04:14.307Z,13.23
2022-08-27T07:06:41.872Z,12.52
2022-08-27T07:09:09.767Z,13.13
2022-08-27T07:11:36.905Z,8.35
2022-08-27T07:14:04.419Z,11.32
2022-08-27T07:16:33.772Z,8.70
2022-08-27T07:19:04.049Z,14.50
2022-08-27T07:21:32.687Z,10.50
2022-08-27T07:24:04.848Z,9.02
2022-08-27T07:26:34.927Z,12.57
2022-08-27T07:29:02.601Z,11.50
2022-08-27T07:31:29.578Z,13.85
2022-08-27T07:33:56.450Z,14.65
2022-08-27T07:36:24.069Z,15.80
2022-08-27T07:38:59.201Z,14.63
2022-08-27T07:41:31.196Z,10.82
2022-08-27T07:44:21.116Z,16.75
2022-08-27T07:46:55.706Z,15.05
2022-08-27T07:49:23.831Z,16.00
2022-08-27T07:51:51.383Z,15.27
2022-08-27T07:54:18.658Z,16.67
2022-08-27T07:56:55.339Z,17.83
2022-08-27T07:59:24.977Z,14.52
2022-08-27T08:01:53.461Z,16.83
2022-08-27T08:04:20.898Z,13.40
2022-08-27T08:06:47.843Z,27.38
2022-08-27T08:09:14.673Z,16.80
2022-08-27T08:11:41.759Z,13.55
2022-08-27T08:14:08.593Z,21.65
2022-08-27T08:16:35.380Z,20.73
2022-08-27T08:19:02.248Z,19.63
2022-08-27T08:21:29.671Z,12.80
2022-08-27T08:23:56.744Z,18.58
2022-08-27T08:26:24.836Z,23.10
2022-08-27T08:28:52.674Z,14.75
2022-08-27T08:31:20.298Z,17.35
2022-08-27T08:33:50.442Z,15.45
2022-08-27T08:36:18.427Z,20.80
2022-08-27T08:38:46.690Z,16.08
2022-08-27T08:41:43.868Z,16.85
2022-08-27T08:44:15.386Z,15.52
2022-08-27T08:47:12.447Z,17.73
2022-08-27T08:50:04.637Z,19.80
2022-08-27T08:52:34.726Z,17.73
2022-08-27T08:55:18.765Z,11.27
2022-08-27T08:58:21.733Z,11.38
2022-08-27T09:00:57.812Z,15.67
2022-08-27T09:03:26.779Z,14.48
2022-08-27T09:06:01.177Z,8.35
2022-08-27T09:08:40.524Z,9.45
2022-08-27T09:11:20.478Z,14.48
2022-08-27T09:13:54.836Z,12.07
2022-08-27T09:16:23.417Z,9.90
2022-08-27T09:18:52.627Z,8.73
2022-08-27T09:21:45.997Z,10.30
2022-08-27T09:24:17.027Z,9.30
2022-08-27T09:26:45.043Z,7.40
2022-08-27T09:29:21.956Z,7.38
2022-08-27T09:32:06.191Z,6.18
2022-08-27T09:34:40.455Z,6.45
2022-08-27T09:37:18.714Z,8.73
2022-08-27T09:40:23.790Z,7.20
2022-08-27T09:42:54.297Z,7.80
2022-08-27T09:45:24.965Z,9.93
2022-08-27T09:47:55.092Z,5.75
2022-08-27T09:50:24.805Z,6.15
2022-08-27T09:52:59.182Z,8.23
2022-08-27T09:55:29.785Z,8.90
2022-08-27T09:57:57.223Z,9.40
2022-08-27T10:00:39.637Z,4.38
2022-08-27T10:03:09.431Z,6.07
2022-08-27T10:05:43.892Z,7.30
2022-08-27T10:08:25.248Z,8.60
2022-08-27T10:11:02.985Z,5.20
2022-08-27T10:13:33.497Z,5.05
2022-08-27T10:16:06.125Z,7.85
2022-08-27T10:19:10.026Z,4.00
2022-08-27T10:25:03.867Z,7.90
2022-08-27T10:27:37.178Z,7.20
2022-08-27T10:30:17.256Z,9.98
2022-08-27T10:33:23.712Z,5.07
2022-08-27T10:36:20.289Z,5.82
2022-08-27T10:39:01.378Z,7.57
2022-08-27T10:41:38.399Z,8.60
2022-08-27T10:44:19.638Z,9.18
2022-08-27T10:47:00.695Z,7.82
2022-08-27T10:50:04.975Z,6.05
2022-08-27T10:52:51.662Z,9.07
2022-08-27T10:55:30.476Z,4.47
2022-08-27T10:58:18.693Z,8.43
2022-08-27T11:01:07.157Z,6.03
2022-08-27T11:03:48.053Z,5.18
2022-08-27T11:06:21.695Z,5.38
2022-08-27T11:08:57.940Z,7.10
2022-08-27T11:12:14.627Z,6.40
2022-08-27T11:15:14.681Z,4.85
2022-08-27T11:17:44.895Z,6.45
2022-08-27T11:20:18.922Z,6.38
2022-08-27T11:22:51.543Z,6.47
2022-08-27T11:26:03.622Z,6.85
2022-08-27T11:28:37.580Z,6.15
2022-08-27T11:31:15.315Z,6.03
2022-08-27T11:33:57.479Z,5.45
2022-08-27T11:36:54.178Z,8.35
2022-08-27T11:39:51.541Z,5.05
2022-08-27T11:42:36.185Z,5.70
2022-08-27T11:45:29.890Z,5.93
2022-08-27T11:48:02.936Z,5.22
2022-08-27T11:53:05.952Z,4.13
2022-08-27T11:55:39.080Z,6.57
2022-08-27T11:58:18.146Z,5.72
2022-08-27T12:00:46.909Z,5.22
2022-08-27T12:03:19.875Z,7.68
2022-08-27T12:08:26.347Z,6.32
2022-08-27T12:11:17.359Z,9.68
2022-08-27T12:14:08.830Z,5.88
2022-08-27T12:17:04.074Z,9.30
2022-08-27T12:20:01.824Z,8.00
2022-08-27T12:23:01.878Z,7.97
2022-08-27T12:25:28.801Z,5.75
2022-08-27T12:28:07.935Z,4.72
2022-08-27T12:30:36.148Z,4.72
2022-08-27T12:33:29.967Z,7.75
2022-08-27T12:36:05.714Z,8.75
2022-08-27T12:38:32.595Z,5.57
2022-08-27T12:41:09.276Z,4.80
2022-08-27T12:43:43.997Z,5.60
2022-08-27T12:46:18.542Z,6.18
2022-08-27T12:48:52.034Z,5.40
2022-08-27T12:51:22.398Z,8.20
2022-08-27T12:53:52.650Z,5.90
2022-08-27T12:56:32.472Z,6.95
2022-08-27T12:59:17.845Z,5.43
2022-08-27T13:02:24.741Z,7.15
2022-08-27T13:04:51.875Z,6.60
2022-08-27T13:07:33.043Z,5.97
2022-08-27T13:10:31.883Z,6.80
2022-08-27T13:13:11.557Z,5.22
2022-08-27T13:15:51.228Z,5.97
2022-08-27T13:18:19.046Z,6.13
2022-08-27T13:20:53.302Z,7.40
2022-08-27T13:23:24.121Z,9.18
2022-08-27T13:26:11.420Z,9.60
2022-08-27T13:28:41.387Z,6.63
2022-08-27T13:31:10.402Z,7.15
2022-08-27T13:33:39.855Z,4.20
2022-08-27T13:36:09.430Z,7.25
2022-08-27T13:38:50.148Z,4.10
2022-08-27T13:41:36.747Z,6.40
2022-08-27T13:44:10.650Z,2.55
2022-08-27T13:46:49.628Z,6.95
2022-08-27T13:49:24.368Z,4.43
2022-08-27T13:52:16.707Z,7.10
2022-08-27T13:54:49.419Z,7.90
2022-08-27T13:57:31.364Z,9.07
2022-08-27T14:00:24.235Z,3.65
2022-08-27T14:02:56.267Z,4.90
2022-08-27T14:05:23.341Z,5.97
2022-08-27T14:07:54.855Z,4.53
2022-08-27T14:10:38.144Z,4.72
2022-08-27T14:15:43.714Z,8.57
2022-08-27T14:18:37.171Z,4.38
2022-08-27T14:21:09.480Z,5.57
2022-08-27T14:23:36.160Z,10.40
2022-08-27T14:26:03.455Z,7.22
2022-08-27T14:28:31.769Z,5.70
2022-08-27T14:30:58.719Z,5.57
2022-08-27T14:33:25.875Z,7.70
2022-08-27T14:35:52.647Z,3.92
2022-08-27T14:38:22.804Z,3.13
2022-08-27T14:40:52.289Z,6.35
2022-08-27T14:43:21.064Z,5.65
2022-08-27T14:45:51.713Z,6.22
2022-08-27T14:48:28.757Z,8.30
2022-08-27T14:50:56.843Z,5.35
2022-08-27T14:53:24.274Z,6.05
2022-08-27T14:55:51.995Z,5.32
2022-08-27T14:58:19.832Z,8.10
2022-08-27T15:00:46.945Z,7.35
2022-08-27T15:03:13.773Z,5.70
2022-08-27T15:05:40.614Z,6.25
2022-08-27T15:08:13.324Z,8.85
2022-08-27T15:10:40.400Z,5.45
2022-08-27T15:13:07.299Z,4.50
2022-08-27T15:15:34.193Z,5.57
2022-08-27T15:18:01.007Z,4.93
2022-08-27T15:20:27.971Z,6.43
2022-08-27T15:22:54.739Z,4.93
2022-08-27T15:25:22.667Z,4.78
2022-08-27T15:27:49.883Z,4.88
2022-08-27T15:30:18.395Z,6.32
2022-08-27T15:32:49.324Z,6.47
2022-08-27T15:35:25.401Z,8.88
2022-08-27T15:37:53.841Z,13.43
2022-08-27T15:40:20.850Z,6.05
2022-08-27T15:42:53.671Z,4.70
2022-08-27T15:45:20.670Z,6.47
2022-08-27T15:47:52.398Z,5.97
2022-08-27T15:50:19.327Z,7.47
2022-08-27T15:52:48.863Z,6.53
2022-08-27T15:55:22.705Z,3.88
2022-08-27T15:57:50.070Z,9.65
2022-08-27T16:00:17.890Z,7.65
2022-08-27T16:02:49.411Z,7.10
2022-08-27T16:05:16.882Z,4.05
2022-08-27T16:07:44.798Z,5.05
2022-08-27T16:10:12.628Z,6.05
2022-08-27T16:12:39.488Z,4.13
2022-08-27T16:15:07.579Z,4.90
2022-08-27T16:17:34.907Z,4.55
2022-08-27T16:20:02.050Z,4.53
2022-08-27T16:22:29.108Z,5.00
2022-08-27T16:24:55.952Z,6.90
2022-08-27T16:27:22.747Z,5.65
2022-08-27T16:29:49.503Z,3.78
2022-08-27T16:32:18.892Z,6.00
2022-08-27T16:34:53.276Z,7.32
2022-08-27T16:37:23.532Z,5.03
2022-08-27T16:39:50.325Z,6.53
2022-08-27T16:42:17.254Z,8.55
2022-08-27T16:44:44.046Z,8.55
2022-08-27T16:47:10.855Z,4.18
2022-08-27T16:49:56.463Z,6.95
2022-08-27T16:52:23.666Z,6.13
2022-08-27T16:54:51.708Z,6.78
2022-08-27T16:57:18.523Z,6.05
2022-08-27T16:59:45.807Z,7.60
2022-08-27T17:02:25.523Z,6.45
2022-08-27T17:05:12.349Z,6.03
2022-08-27T17:07:44.140Z,4.93
2022-08-27T17:10:16.005Z,4.45
2022-08-27T17:12:43.223Z,5.15
2022-08-27T17:15:10.124Z,5.03
2022-08-27T17:17:38.963Z,7.55
2022-08-27T17:20:06.990Z,5.43
2022-08-27T17:22:34.923Z,4.32
2022-08-27T17:25:01.807Z,3.85
2022-08-27T17:27:28.519Z,7.50
2022-08-27T17:29:55.349Z,5.30
2022-08-27T17:32:22.271Z,4.50
2022-08-27T17:34:49.013Z,5.85
2022-08-27T17:37:15.790Z,5.75
2022-08-27T17:39:45.522Z,5.03
2022-08-27T17:42:12.386Z,5.57
2022-08-27T17:44:39.458Z,6.70
2022-08-27T17:47:08.317Z,3.40
2022-08-27T17:49:36.269Z,5.55
2022-08-27T17:52:07.392Z,3.88
2022-08-27T17:54:40.114Z,4.82
2022-08-27T17:57:27.515Z,5.30
2022-08-27T17:59:55.558Z,4.30
2022-08-27T18:02:29.679Z,5.40
2022-08-27T18:04:56.879Z,7.25
2022-08-27T18:07:23.990Z,4.25
2022-08-27T18:09:51.777Z,4.75
2022-08-27T18:12:23.765Z,5.63
2022-08-27T18:15:05.469Z,7.65
2022-08-27T18:17:33.007Z,5.25
2022-08-27T18:19:59.878Z,6.93
2022-08-27T18:22:26.815Z,8.90
2022-08-27T18:24:54.197Z,8.75
2022-08-27T18:27:27.250Z,8.52
2022-08-27T18:32:24.191Z,7.63
2022-08-27T18:34:51.886Z,9.77
2022-08-27T18:37:18.579Z,8.70
2022-08-27T18:39:45.360Z,9.15
2022-08-27T18:42:12.935Z,11.73
2022-08-27T18:44:43.155Z,7.43
2022-08-27T18:47:09.975Z,7.82
2022-08-27T18:49:36.666Z,7.50
2022-08-27T18:52:04.461Z,7.30
2022-08-27T18:54:31.765Z,7.03
2022-08-27T18:56:58.485Z,6.97
2022-08-27T18:59:25.857Z,5.55
2022-08-27T19:01:54.047Z,8.18
2022-08-27T19:04:21.435Z,6.32
2022-08-27T19:06:48.422Z,9.63
2022-08-27T19:09:17.887Z,7.70
2022-08-27T19:11:44.656Z,8.13
2022-08-27T19:14:11.387Z,7.35
2022-08-27T19:16:47.729Z,7.05
2022-08-27T19:19:16.869Z,8.70
2022-08-27T19:21:48.005Z,5.65
2022-08-27T19:24:19.025Z,8.73
2022-08-27T19:26:48.536Z,10.30
2022-08-27T19:29:15.791Z,5.97
2022-08-27T19:31:42.642Z,6.13
2022-08-27T19:34:09.608Z,6.78
2022-08-27T19:36:41.262Z,7.80
2022-08-27T19:39:12.078Z,7.80
2022-08-27T19:41:38.942Z,6.07
2022-08-27T19:44:08.598Z,5.57
2022-08-27T19:46:36.725Z,11.25
2022-08-27T19:49:03.907Z,7.88
2022-08-27T19:51:30.850Z,8.85
2022-08-27T19:53:57.560Z,6.00
2022-08-27T19:56:24.362Z,6.50
2022-08-27T19:58:56.600Z,6.03
2022-08-27T20:01:24.450Z,4.55
2022-08-27T20:03:51.409Z,7.45
2022-08-27T20:06:21.594Z,5.50
2022-08-27T20:08:49.894Z,8.75
2022-08-27T20:11:18.286Z,6.25
2022-08-27T20:13:50.605Z,3.75
2022-08-27T20:16:17.911Z,6.40
2022-08-27T20:18:45.157Z,7.07
2022-08-27T20:21:11.910Z,8.15
2022-08-27T20:23:38.566Z,8.52
2022-08-27T20:26:05.341Z,7.22
2022-08-27T20:28:40.315Z,8.50
2022-08-27T20:31:08.338Z,9.23
2022-08-27T20:33:35.026Z,8.95
2022-08-27T20:36:04.991Z,8.95
2022-08-27T20:38:34.838Z,8.15
2022-08-27T20:41:02.479Z,8.98
2022-08-27T20:43:30.086Z,6.80
2022-08-27T20:45:57.112Z,9.18
2022-08-27T20:48:23.903Z,6.95
2022-08-27T20:50:50.791Z,9.32
2022-08-27T20:53:17.557Z,7.70
2022-08-27T20:55:44.277Z,7.90
2022-08-27T20:58:29.352Z,11.02
2022-08-27T21:00:57.625Z,8.75
2022-08-27T21:03:27.487Z,8.65
2022-08-27T21:05:54.355Z,8.77
2022-08-27T21:08:21.911Z,13.02
2022-08-27T21:10:57.029Z,7.68
2022-08-27T21:13:25.175Z,7.13
2022-08-27T21:15:54.633Z,9.30
2022-08-27T21:18:29.318Z,7.63
2022-08-27T21:20:57.218Z,11.30
2022-08-27T21:23:25.319Z,9.63
2022-08-27T21:25:52.027Z,8.88
2022-08-27T21:28:18.709Z,10.50
2022-08-27T21:30:45.527Z,12.27
2022-08-27T21:33:12.277Z,9.73
2022-08-27T21:35:38.973Z,10.45
2022-08-27T21:38:05.790Z,9.82
2022-08-27T21:40:33.169Z,9.00
2022-08-27T21:43:01.999Z,8.32
2022-08-27T21:45:28.713Z,7.68
2022-08-27T21:47:55.610Z,9.32
2022-08-27T21:50:25.892Z,9.02
2022-08-27T21:52:53.819Z,9.63
2022-08-27T21:55:20.776Z,8.98
2022-08-27T21:57:47.748Z,8.15
2022-08-27T22:00:28.368Z,13.70
2022-08-27T22:02:56.459Z,9.73
2022-08-27T22:05:23.717Z,8.20
2022-08-27T22:07:50.356Z,7.55
2022-08-27T22:10:17.389Z,7.82
2022-08-27T22:12:44.282Z,8.15
2022-08-27T22:15:11.111Z,8.13
2022-08-27T22:17:38.021Z,11.65
2022-08-27T22:20:08.034Z,11.65
2022-08-27T22:22:34.958Z,11.27
2022-08-27T22:25:02.136Z,11.68
2022-08-27T22:27:28.913Z,8.77
2022-08-27T22:29:55.777Z,13.10
2022-08-27T22:32:22.693Z,12.40
2022-08-27T22:34:49.459Z,10.52
2022-08-27T22:37:16.249Z,9.48
2022-08-27T22:39:42.985Z,9.35
2022-08-27T22:42:09.773Z,9.82
2022-08-27T22:44:40.696Z,9.05
2022-08-27T22:47:07.426Z,8.63
2022-08-27T22:49:34.273Z,13.70
2022-08-27T22:52:00.950Z,10.13
2022-08-27T22:54:27.674Z,11.25
2022-08-27T22:56:54.376Z,8.27
2022-08-27T22:59:21.068Z,8.95
2022-08-27T23:01:47.960Z,9.23
2022-08-27T23:04:15.823Z,10.15
2022-08-27T23:06:42.635Z,10.38
2022-08-27T23:09:09.506Z,10.90
2022-08-27T23:11:36.228Z,10.82
2022-08-27T23:14:03.203Z,12.57
2022-08-27T23:16:31.846Z,8.90
2022-08-27T23:18:58.654Z,10.23
2022-08-27T23:21:25.755Z,9.65
2022-08-27T23:23:52.499Z,12.82
2022-08-27T23:26:37.863Z,11.80
2022-08-27T23:29:05.568Z,12.38
2022-08-27T23:31:32.393Z,9.52
2022-08-27T23:33:59.085Z,8.90
2022-08-27T23:36:26.305Z,9.18
2022-08-27T23:38:53.073Z,11.55
2022-08-27T23:41:19.757Z,7.78
2022-08-27T23:43:46.660Z,10.32
2022-08-27T23:46:13.489Z,6.43
2022-08-27T23:48:40.654Z,10.45
2022-08-27T23:51:08.036Z,7.72
2022-08-27T23:53:36.990Z,8.82
2022-08-27T23:56:04.085Z,7.95
2022-08-27T23:58:30.799Z,8.60
